Time;durP1;ratioP1;P1;durP2;ratioP2;P2;SDS_P1;SDS_P2;PMS_P1;PMS_P2;Temp;Humidity;BMP_temperature;BMP_pressure;BME280_temperature;BME280_humidity;BME280_pressure;Samples;Min_cycle;Max_cycle;Signal;HPM_P1;HPM_P2
2024/01/27 00:01:12;;;;;;;;;;;;;;;15.44;40.21;101204.47;4895438;29;1899;-46
2024/01/27 00:03:38;;;;;;;;;;;;;;;16.21;38.61;101203.31;4901018;29;1138;-45
2024/01/27 00:06:03;;;;;;;;;;;;;;;17.41;36.46;101215.84;4900725;29;1538;-42
2024/01/27 00:08:29;;;;;;;;;;;;;;;16.86;37.30;101211.50;4900976;29;1058;-49
2024/01/27 00:10:54;;;;;;;;;;;;;;;16.07;38.92;101211.28;4888525;29;1174;-47
2024/01/27 00:13:20;;;;;;;;;;;;;;;15.67;39.54;101207.50;4891316;29;1026;-47
2024/01/27 00:15:45;;;;;;;;;;;;;;;15.49;40.23;101215.66;4898581;29;1015;-47
2024/01/27 00:18:11;;;;;;;;;;;;;;;16.94;37.46;101220.75;4901225;29;1102;-46
2024/01/27 00:20:37;;;;;;;;;;;;;;;17.12;36.61;101216.91;4894229;29;2535;-46
2024/01/27 00:23:03;;;;;;;;;;;;;;;16.22;38.25;101220.94;4892711;29;1919;-46
2024/01/27 00:25:28;;;;;;;;;;;;;;;15.66;39.39;101219.06;4898470;29;1035;-46
2024/01/27 00:27:54;;;;;;;;;;;;;;;15.42;40.08;101225.78;4900896;29;1049;-45
2024/01/27 00:30:19;;;;;;;;;;;;;;;16.75;37.75;101221.97;4900949;29;999;-48
2024/01/27 00:32:45;;;;;;;;;;;;;;;17.33;36.19;101219.03;4900579;29;1034;-45
2024/01/27 00:35:14;;;;;;;;;;;;;;;16.28;38.26;101227.66;4901178;29;1218;-42
2024/01/27 00:37:40;;;;;;;;;;;;;;;15.80;39.14;101223.50;4898361;29;1045;-45
2024/01/27 00:40:11;;;;;;;;;;;;;;;15.47;39.86;101228.13;4882924;29;1090;-45
2024/01/27 00:42:37;;;;;;;;;;;;;;;16.77;37.65;101222.72;4893104;29;1911;-42
2024/01/27 00:45:03;;;;;;;;;;;;;;;17.33;36.28;101219.03;4888313;29;999;-43
2024/01/27 00:47:29;;;;;;;;;;;;;;;16.33;38.31;101220.22;4900891;29;1126;-44
2024/01/27 00:49:54;;;;;;;;;;;;;;;15.82;39.54;101218.09;4889139;29;1908;-48
2024/01/27 00:52:20;;;;;;;;;;;;;;;15.41;39.94;101220.56;4885683;29;1143;-46
2024/01/27 00:54:45;;;;;;;;;;;;;;;16.60;37.83;101218.56;4898141;29;1482;-46
2024/01/27 00:57:11;;;;;;;;;;;;;;;17.52;36.13;101223.06;4895906;29;1202;-45
2024/01/27 00:59:36;;;;;;;;;;;;;;;16.47;38.04;101222.00;4903987;29;1006;-50
2024/01/27 01:02:02;;;;;;;;;;;;;;;15.89;38.86;101214.13;4897667;29;1982;-45
2024/01/27 01:04:28;;;;;;;;;;;;;;;15.58;39.52;101210.72;4891406;29;1121;-46
2024/01/27 01:06:53;;;;;;;;;;;;;;;15.64;39.87;101213.84;4904528;29;1197;-45
2024/01/27 01:09:19;;;;;;;;;;;;;;;17.09;36.85;101219.75;4890894;29;1120;-44
2024/01/27 01:11:44;;;;;;;;;;;;;;;17.01;36.81;101222.06;4904302;29;1202;-45
2024/01/27 01:14:10;;;;;;;;;;;;;;;16.14;38.62;101224.09;4892130;29;1058;-49
2024/01/27 01:16:35;;;;;;;;;;;;;;;15.70;39.65;101212.59;4902640;29;1065;-44
2024/01/27 01:19:01;;;;;;;;;;;;;;;15.42;39.88;101217.81;4885396;29;995;-43
2024/01/27 01:21:26;;;;;;;;;;;;;;;16.76;37.38;101210.41;4885186;29;2779;-43
2024/01/27 01:23:52;;;;;;;;;;;;;;;17.56;35.89;101207.75;4900799;29;1177;-45
2024/01/27 01:26:18;;;;;;;;;;;;;;;16.47;37.73;101199.91;4903776;29;1172;-46
2024/01/27 01:28:43;;;;;;;;;;;;;;;15.86;39.31;101196.59;4903640;29;1050;-46
2024/01/27 01:31:08;;;;;;;;;;;;;;;15.54;39.94;101184.41;4903114;29;1092;-46
2024/01/27 01:33:34;;;;;;;;;;;;;;;15.98;39.00;101187.03;4900647;29;1034;-43
2024/01/27 01:35:59;;;;;;;;;;;;;;;17.25;36.64;101182.34;4884841;29;1128;-44
2024/01/27 01:38:25;;;;;;;;;;;;;;;16.96;36.79;101174.53;4895768;29;972;-49
2024/01/27 01:40:50;;;;;;;;;;;;;;;16.06;38.42;101177.72;4893885;29;1050;-48
2024/01/27 01:43:16;;;;;;;;;;;;;;;15.69;39.27;101176.44;4888479;29;1899;-47
2024/01/27 01:45:42;;;;;;;;;;;;;;;15.50;39.65;101182.00;4884761;29;1138;-45
2024/01/27 01:48:07;;;;;;;;;;;;;;;16.12;38.84;101172.88;4899683;29;1000;-46
2024/01/27 01:50:33;;;;;;;;;;;;;;;17.32;36.32;101180.09;4901667;29;1979;-45
2024/01/27 01:52:58;;;;;;;;;;;;;;;16.92;36.85;101183.66;4917580;29;1062;-45
2024/01/27 01:55:24;;;;;;;;;;;;;;;16.11;38.38;101179.16;4917991;29;1128;-46
2024/01/27 01:57:50;;;;;;;;;;;;;;;15.61;39.46;101184.00;4903074;29;1147;-46
2024/01/27 02:00:15;;;;;;;;;;;;;;;15.77;39.33;101187.41;4895307;29;1101;-46
2024/01/27 02:02:45;;;;;;;;;;;;;;;17.16;36.67;101182.13;4896170;29;1969;-46
2024/01/27 02:05:11;;;;;;;;;;;;;;;16.99;36.75;101174.31;4894427;29;1150;-43
2024/01/27 02:07:37;;;;;;;;;;;;;;;16.15;38.55;101172.69;4898805;29;1195;-43
2024/01/27 02:10:02;;;;;;;;;;;;;;;15.72;39.47;101175.38;4894132;29;1205;-44
2024/01/27 02:12:28;;;;;;;;;;;;;;;15.52;40.05;101170.38;4900119;29;1132;-46
2024/01/27 02:14:53;;;;;;;;;;;;;;;17.00;37.10;101170.69;4887735;29;1127;-44
2024/01/27 02:17:19;;;;;;;;;;;;;;;17.05;36.60;101164.22;4899911;29;1138;-46
2024/01/27 02:19:44;;;;;;;;;;;;;;;16.17;38.20;101167.28;4902786;29;2676;-44
2024/01/27 02:22:10;;;;;;;;;;;;;;;15.72;39.35;101165.63;4902455;29;1911;-44
2024/01/27 02:24:35;;;;;;;;;;;;;;;15.88;38.81;101160.19;4903306;29;1031;-45
2024/01/27 02:27:01;;;;;;;;;;;;;;;17.29;36.30;101169.69;4890171;29;1054;-44
2024/01/27 02:29:27;;;;;;;;;;;;;;;16.59;37.49;101161.91;4893943;29;1109;-46
2024/01/27 02:31:53;;;;;;;;;;;;;;;15.94;38.57;101158.09;4884206;29;1096;-48
2024/01/27 02:34:19;;;;;;;;;;;;;;;15.58;39.39;101158.53;4884297;29;1113;-47
2024/01/27 02:36:44;;;;;;;;;;;;;;;15.55;40.03;101153.41;4901282;29;1046;-46
2024/01/27 02:39:10;;;;;;;;;;;;;;;17.06;36.63;101150.84;4895551;29;1140;-46
2024/01/27 02:41:38;;;;;;;;;;;;;;;16.95;36.57;101146.25;4886831;29;1977;-46
2024/01/27 02:44:04;;;;;;;;;;;;;;;16.14;38.21;101144.44;4902496;29;994;-46
2024/01/27 02:46:30;;;;;;;;;;;;;;;15.71;39.22;101144.50;4899190;29;1061;-44
2024/01/27 02:48:55;;;;;;;;;;;;;;;15.74;39.27;101134.56;4893603;29;1215;-48
2024/01/27 02:51:21;;;;;;;;;;;;;;;17.14;36.51;101142.34;4894880;29;2544;-46
2024/01/27 02:53:46;;;;;;;;;;;;;;;17.01;36.43;101134.34;4883530;29;1118;-46
2024/01/27 02:56:12;;;;;;;;;;;;;;;16.12;38.13;101134.88;4883612;29;1066;-47
2024/01/27 02:58:37;;;;;;;;;;;;;;;15.75;38.90;101128.28;4883748;29;1032;-44
2024/01/27 03:01:03;;;;;;;;;;;;;;;15.50;39.82;101135.16;4897892;29;1086;-47
2024/01/27 03:03:29;;;;;;;;;;;;;;;16.87;37.22;101133.47;4901265;29;1985;-47
2024/01/27 03:05:54;;;;;;;;;;;;;;;17.39;35.78;101130.00;4899530;29;1041;-46
2024/01/27 03:08:20;;;;;;;;;;;;;;;16.36;37.50;101131.56;4892190;29;1106;-44
2024/01/27 03:10:45;;;;;;;;;;;;;;;15.86;38.98;101124.13;4899798;29;1022;-44
2024/01/27 03:13:11;;;;;;;;;;;;;;;15.48;39.89;101129.06;4891731;29;1042;-48
2024/01/27 03:15:37;;;;;;;;;;;;;;;16.51;37.88;101138.53;4899369;29;1018;-47
2024/01/27 03:18:03;;;;;;;;;;;;;;;17.49;35.96;101140.84;4891989;29;1141;-43
2024/01/27 03:20:30;;;;;;;;;;;;;;;16.50;37.74;101141.25;4907021;29;2476;-45
2024/01/27 03:22:56;;;;;;;;;;;;;;;15.85;38.98;101139.16;4902232;29;1910;-44
2024/01/27 03:25:22;;;;;;;;;;;;;;;15.57;39.68;101146.22;4901677;29;1037;-46
2024/01/27 03:27:47;;;;;;;;;;;;;;;16.24;38.37;101146.50;4901257;29;904;-46
2024/01/27 03:30:13;;;;;;;;;;;;;;;17.44;36.13;101135.84;4892671;29;1197;-46
2024/01/27 03:32:38;;;;;;;;;;;;;;;16.65;37.20;101134.94;4901608;29;1023;-46
2024/01/27 03:35:04;;;;;;;;;;;;;;;15.98;38.46;101131.31;4900044;29;1084;-47
2024/01/27 03:37:29;;;;;;;;;;;;;;;15.66;39.21;101128.88;4891929;29;1122;-44
2024/01/27 03:39:55;;;;;;;;;;;;;;;15.58;39.26;101129.34;4895241;29;1115;-42
2024/01/27 03:42:21;;;;;;;;;;;;;;;17.02;36.55;101133.38;4901440;29;1907;-44
2024/01/27 03:44:46;;;;;;;;;;;;;;;16.93;36.64;101129.56;4886361;29;1014;-45
2024/01/27 03:47:13;;;;;;;;;;;;;;;16.11;38.22;101128.72;4882978;29;1027;-45
2024/01/27 03:49:38;;;;;;;;;;;;;;;15.60;39.01;101126.63;4896928;29;1099;-44
2024/01/27 03:52:04;;;;;;;;;;;;;;;15.38;39.96;101133.28;4891364;29;2675;-45
2024/01/27 03:54:29;;;;;;;;;;;;;;;16.79;37.37;101121.66;4901117;29;1030;-45
2024/01/27 03:56:55;;;;;;;;;;;;;;;17.37;36.16;101123.94;4901278;29;1039;-46
2024/01/27 03:59:20;;;;;;;;;;;;;;;16.27;37.92;101127.72;4899387;29;1054;-49
2024/01/27 04:01:46;;;;;;;;;;;;;;;15.77;38.77;101126.41;4901115;29;1981;-44
2024/01/27 04:04:12;;;;;;;;;;;;;;;15.48;39.60;101129.06;4892540;29;1217;-47
2024/01/27 04:06:41;;;;;;;;;;;;;;;16.84;37.03;101127.53;4893423;29;1050;-47
2024/01/27 04:09:10;;;;;;;;;;;;;;;17.09;36.62;101128.53;4884324;29;1031;-43
2024/01/27 04:11:36;;;;;;;;;;;;;;;16.12;38.22;101126.91;4901176;29;1051;-46
2024/01/27 04:14:02;;;;;;;;;;;;;;;15.63;39.07;101142.34;4900540;29;1007;-47
2024/01/27 04:16:27;;;;;;;;;;;;;;;15.43;39.90;101147.94;4897803;29;893;-49
2024/01/27 04:18:53;;;;;;;;;;;;;;;16.86;37.10;101155.72;4886994;29;1071;-47
2024/01/27 04:21:18;;;;;;;;;;;;;;;17.20;36.29;101149.91;4882465;29;2286;-48
2024/01/27 04:23:44;;;;;;;;;;;;;;;16.21;38.00;101144.91;4894962;29;1054;-46
2024/01/27 04:26:10;;;;;;;;;;;;;;;15.66;39.30;101139.50;4893888;29;945;-47
2024/01/27 04:28:36;;;;;;;;;;;;;;;15.52;39.29;101141.22;4900515;29;1134;-45
2024/01/27 04:31:01;;;;;;;;;;;;;;;16.94;36.86;101146.34;4886044;29;995;-43
2024/01/27 04:33:27;;;;;;;;;;;;;;;17.34;35.93;101148.09;4887889;29;1012;-46
2024/01/27 04:35:52;;;;;;;;;;;;;;;16.34;37.43;101136.97;4904482;29;1034;-50
2024/01/27 04:38:18;;;;;;;;;;;;;;;15.83;38.53;101125.16;4904266;29;1075;-46
2024/01/27 04:40:43;;;;;;;;;;;;;;;15.52;39.56;101132.41;4904520;29;883;-44
2024/01/27 04:43:09;;;;;;;;;;;;;;;16.01;38.67;101139.09;4891977;29;1911;-42
2024/01/27 04:45:34;;;;;;;;;;;;;;;17.31;36.04;101135.00;4897104;29;1038;-44
2024/01/27 04:48:01;;;;;;;;;;;;;;;16.66;37.00;101135.78;4899429;29;1011;-43
2024/01/27 04:50:26;;;;;;;;;;;;;;;15.91;38.46;101127.31;4898820;29;1897;-44
2024/01/27 04:52:52;;;;;;;;;;;;;;;15.55;39.56;101134.84;4897015;29;983;-45
2024/01/27 04:55:18;;;;;;;;;;;;;;;15.96;38.58;101124.38;4904175;29;1031;-47
2024/01/27 04:57:43;;;;;;;;;;;;;;;17.30;36.23;101117.38;4890837;29;1185;-51
2024/01/27 05:00:12;;;;;;;;;;;;;;;16.56;37.50;101121.41;4889246;29;1269;-46
2024/01/27 05:02:41;;;;;;;;;;;;;;;15.84;38.79;101113.59;4900477;29;1906;-50
2024/01/27 05:05:06;;;;;;;;;;;;;;;15.39;39.76;101098.72;4889420;29;855;-44
2024/01/27 05:07:32;;;;;;;;;;;;;;;15.96;38.54;101097.84;4901137;29;1069;-47
2024/01/27 05:09:58;;;;;;;;;;;;;;;17.22;36.31;101100.13;4903816;29;1062;-42
2024/01/27 05:12:23;;;;;;;;;;;;;;;16.79;37.12;101097.75;4903388;29;1073;-46
2024/01/27 05:14:49;;;;;;;;;;;;;;;15.98;38.53;101094.16;4903561;29;1101;-46
2024/01/27 05:17:14;;;;;;;;;;;;;;;15.56;39.37;101104.75;4889311;29;1007;-46
2024/01/27 05:19:40;;;;;;;;;;;;;;;16.45;37.88;101085.81;4885424;29;1067;-45
2024/01/27 05:22:05;;;;;;;;;;;;;;;16.48;37.33;101082.94;4888541;29;2315;-48
2024/01/27 05:24:31;;;;;;;;;;;;;;;15.27;39.60;101083.56;4904084;29;1094;-47
2024/01/27 05:26:56;;;;;;;;;;;;;;;15.48;39.72;101081.34;4903440;29;1184;-44
2024/01/27 05:29:22;;;;;;;;;;;;;;;15.97;38.42;101092.44;4903664;29;843;-49
2024/01/27 05:31:47;;;;;;;;;;;;;;;15.00;40.17;101089.59;4903737;29;1147;-51
2024/01/27 05:34:13;;;;;;;;;;;;;;;16.67;37.45;101091.47;4903596;29;1022;-50
2024/01/27 05:36:38;;;;;;;;;;;;;;;15.49;39.66;101098.13;4915261;29;1198;-51
2024/01/27 05:39:04;;;;;;;;;;;;;;;14.77;41.14;101095.31;4885558;29;1207;-47
2024/01/27 05:41:30;;;;;;;;;;;;;;;16.58;37.28;101090.31;4900449;29;1977;-47
2024/01/27 05:43:57;;;;;;;;;;;;;;;15.17;40.07;101081.47;4903505;29;1041;-51
2024/01/27 05:46:23;;;;;;;;;;;;;;;16.05;38.82;101080.50;4903509;29;1027;-47
2024/01/27 05:48:50;;;;;;;;;;;;;;;16.20;37.82;101076.00;4894138;29;1030;-46
2024/01/27 05:51:16;;;;;;;;;;;;;;;15.55;39.82;101079.16;4888465;29;2403;-50
2024/01/27 05:53:41;;;;;;;;;;;;;;;17.48;35.76;101081.47;4899829;29;920;-49
2024/01/27 05:56:07;;;;;;;;;;;;;;;15.97;38.64;101071.19;4903178;29;1093;-51
2024/01/27 05:58:32;;;;;;;;;;;;;;;15.22;40.27;101069.72;4902613;29;867;-47
2024/01/27 06:00:58;;;;;;;;;;;;;;;16.46;37.81;101066.28;4890893;29;1017;-45
2024/01/27 06:03:23;;;;;;;;;;;;;;;15.30;39.74;101070.97;4895781;29;1915;-51
2024/01/27 06:05:49;;;;;;;;;;;;;;;17.24;36.36;101076.09;4889575;29;843;-51
2024/01/27 06:08:15;;;;;;;;;;;;;;;16.38;37.53;101060.63;4903327;29;1109;-50
2024/01/27 06:10:40;;;;;;;;;;;;;;;15.38;39.70;101064.34;4902451;29;1023;-49
2024/01/27 06:13:06;;;;;;;;;;;;;;;15.08;40.34;101066.13;4902653;29;1101;-49
2024/01/27 06:15:31;;;;;;;;;;;;;;;16.37;38.36;101058.91;4903383;29;1126;-53
2024/01/27 06:17:57;;;;;;;;;;;;;;;15.46;39.56;101063.84;4900053;29;932;-53
2024/01/27 06:20:23;;;;;;;;;;;;;;;17.07;36.78;101061.28;4886739;29;1975;-49
2024/01/27 06:22:48;;;;;;;;;;;;;;;16.96;36.53;101062.06;4898433;29;1974;-51
2024/01/27 06:25:14;;;;;;;;;;;;;;;15.66;39.54;101054.63;4903051;29;1039;-45
2024/01/27 06:27:41;;;;;;;;;;;;;;;16.07;39.01;101054.69;4902825;29;994;-47
2024/01/27 06:30:07;;;;;;;;;;;;;;;15.91;38.58;101071.59;4894899;29;886;-50
2024/01/27 06:32:33;;;;;;;;;;;;;;;16.21;38.65;101073.25;4902918;29;1059;-48
2024/01/27 06:34:58;;;;;;;;;;;;;;;17.47;35.80;101065.63;4901350;29;1113;-47
2024/01/27 06:37:24;;;;;;;;;;;;;;;15.93;38.92;101080.34;4889141;29;1003;-44
2024/01/27 06:39:49;;;;;;;;;;;;;;;16.94;37.31;101072.78;4891059;29;1408;-45
2024/01/27 06:42:15;;;;;;;;;;;;;;;17.03;36.51;101060.69;4902112;29;1902;-43
2024/01/27 06:44:40;;;;;;;;;;;;;;;15.81;39.00;101067.84;4902583;29;1030;-46
2024/01/27 06:47:06;;;;;;;;;;;;;;;15.40;39.74;101062.41;4901955;29;1007;-44
2024/01/27 06:49:33;;;;;;;;;;;;;;;15.20;40.36;101066.34;4916532;29;1227;-50
2024/01/27 06:51:58;;;;;;;;;;;;;;;16.44;38.05;101067.31;4902918;29;1162;-49
2024/01/27 06:54:24;;;;;;;;;;;;;;;15.81;39.41;101074.00;4893086;29;852;-48
2024/01/27 06:56:49;;;;;;;;;;;;;;;17.70;35.79;101071.94;4902097;29;1078;-48
2024/01/27 06:59:15;;;;;;;;;;;;;;;16.32;37.93;101066.34;4901358;29;1098;-47
2024/01/27 07:01:49;;;;;;;;;;;;;;;15.61;39.57;101067.31;4891891;29;1910;-47
2024/01/27 07:04:15;;;;;;;;;;;;;;;17.00;37.00;101066.19;4901543;29;1446;-47
2024/01/27 07:06:40;;;;;;;;;;;;;;;15.76;39.34;101063.69;4899567;29;1066;-48
2024/01/27 07:09:15;;;;;;;;;;;;;;;16.83;37.69;101062.06;4883754;29;1213;-49
2024/01/27 07:11:40;;;;;;;;;;;;;;;16.36;38.09;101060.75;4898615;29;1031;-47
2024/01/27 07:14:09;;;;;;;;;;;;;;;15.53;39.54;101060.69;4900897;29;1066;-44
2024/01/27 07:16:34;;;;;;;;;;;;;;;15.25;40.14;101058.94;4887145;29;1077;-50
2024/01/27 07:19:00;;;;;;;;;;;;;;;16.24;38.66;101054.44;4892117;29;1101;-45
2024/01/27 07:21:26;;;;;;;;;;;;;;;16.34;38.18;101064.44;4898941;29;1983;-47
2024/01/27 07:23:53;;;;;;;;;;;;;;;15.41;40.32;101064.16;4901997;29;1062;-52
2024/01/27 07:26:19;;;;;;;;;;;;;;;16.92;37.42;101077.34;4901936;29;1111;-50
2024/01/27 07:28:44;;;;;;;;;;;;;;;15.80;38.93;101069.63;4899694;29;1138;-44
2024/01/27 07:31:11;;;;;;;;;;;;;;;15.25;40.23;101070.41;4888962;29;979;-47
2024/01/27 07:33:38;;;;;;;;;;;;;;;15.10;40.43;101069.53;4900835;29;1026;-46
2024/01/27 07:36:04;;;;;;;;;;;;;;;16.76;37.59;101067.81;4897464;29;1134;-46
2024/01/27 07:38:29;;;;;;;;;;;;;;;15.38;40.23;101062.53;4892330;29;1105;-46
2024/01/27 07:40:55;;;;;;;;;;;;;;;16.38;38.39;101066.78;4885501;29;1035;-49
2024/01/27 07:43:20;;;;;;;;;;;;;;;16.33;38.19;101060.09;4891366;29;1910;-48
2024/01/27 07:45:46;;;;;;;;;;;;;;;15.29;40.30;101055.16;4898494;29;1166;-49
2024/01/27 07:48:12;;;;;;;;;;;;;;;16.24;38.63;101059.75;4901066;29;1043;-48
2024/01/27 07:50:37;;;;;;;;;;;;;;;15.98;38.56;101056.16;4899047;29;1089;-47
2024/01/27 07:53:03;;;;;;;;;;;;;;;15.26;40.29;101060.66;4898059;29;1053;-47
2024/01/27 07:55:29;;;;;;;;;;;;;;;17.30;36.62;101069.50;4893027;29;987;-47
2024/01/27 07:57:54;;;;;;;;;;;;;;;16.08;38.71;101048.47;4897144;29;1111;-47
2024/01/27 08:00:20;;;;;;;;;;;;;;;15.36;40.26;101045.88;4888487;29;1045;-47
2024/01/27 08:02:45;;;;;;;;;;;;;;;16.57;38.23;101049.59;4887680;29;1970;-49
2024/01/27 08:05:11;;;;;;;;;;;;;;;16.29;38.11;101043.50;4897407;29;1102;-49
2024/01/27 08:07:36;;;;;;;;;;;;;;;15.39;39.98;101035.09;4892464;29;1170;-49
2024/01/27 08:10:04;;;;;;;;;;;;;;;15.64;40.16;101036.16;4882566;29;1119;-48
2024/01/27 08:12:29;;;;;;;;;;;;;;;16.37;37.90;101037.69;4887330;29;1618;-47
2024/01/27 08:14:55;;;;;;;;;;;;;;;15.41;39.93;101043.78;4901046;29;1006;-49
2024/01/27 08:17:20;;;;;;;;;;;;;;;15.09;40.38;101040.50;4886055;29;1189;-47
2024/01/27 08:19:46;;;;;;;;;;;;;;;16.51;38.35;101034.97;4888573;29;1070;-50
2024/01/27 08:22:11;;;;;;;;;;;;;;;15.94;39.05;101038.72;4900065;29;1978;-52
2024/01/27 08:24:37;;;;;;;;;;;;;;;16.27;38.72;101035.66;4900690;29;1039;-46
2024/01/27 08:27:03;;;;;;;;;;;;;;;17.65;35.78;101036.81;4887949;29;1046;-45
2024/01/27 08:29:28;;;;;;;;;;;;;;;15.93;39.01;101031.72;4900480;29;1147;-46
2024/01/27 08:31:54;;;;;;;;;;;;;;;15.37;39.78;101030.81;4894505;29;1157;-49
2024/01/27 08:34:19;;;;;;;;;;;;;;;16.81;37.89;101040.06;4893693;29;1055;-46
2024/01/27 08:36:45;;;;;;;;;;;;;;;16.24;38.09;101029.69;4900173;29;1026;-47
2024/01/27 08:39:12;;;;;;;;;;;;;;;15.39;40.34;101044.81;4888958;29;1031;-49
2024/01/27 08:41:37;;;;;;;;;;;;;;;16.77;37.76;101042.06;4894635;29;1907;-45
2024/01/27 08:44:03;;;;;;;;;;;;;;;15.58;39.67;101043.66;4882096;29;1054;-47
2024/01/27 08:46:28;;;;;;;;;;;;;;;16.36;38.78;101051.91;4881920;29;1031;-43
2024/01/27 08:48:54;;;;;;;;;;;;;;;16.77;37.19;101042.94;4897913;29;1163;-47
2024/01/27 08:51:19;;;;;;;;;;;;;;;15.52;39.76;101039.59;4900879;29;1158;-47
2024/01/27 08:53:50;;;;;;;;;;;;;;;15.30;40.36;101038.28;4895575;29;1111;-44
2024/01/27 08:56:17;;;;;;;;;;;;;;;15.84;39.92;101041.97;4882132;29;999;-44
2024/01/27 08:58:47;;;;;;;;;;;;;;;15.90;38.88;101035.41;4881992;29;1090;-48
2024/01/27 09:01:14;;;;;;;;;;;;;;;15.44;40.23;101026.84;4898060;29;1047;-47
2024/01/27 09:03:40;;;;;;;;;;;;;;;17.28;36.44;101024.41;4900088;29;1987;-48
2024/01/27 09:06:07;;;;;;;;;;;;;;;15.63;39.68;101020.34;4883624;29;1023;-44
2024/01/27 09:08:33;;;;;;;;;;;;;;;15.62;40.30;101016.84;4891628;29;1030;-43
2024/01/27 09:10:58;;;;;;;;;;;;;;;16.60;37.56;101006.06;4889928;29;1086;-43
2024/01/27 09:13:24;;;;;;;;;;;;;;;15.40;40.00;101002.31;4894012;29;1035;-49
2024/01/27 09:15:49;;;;;;;;;;;;;;;17.48;36.18;101007.00;4898685;29;1023;-45
2024/01/27 09:18:16;;;;;;;;;;;;;;;16.12;38.74;101008.34;4900753;29;1022;-43
2024/01/27 09:20:42;;;;;;;;;;;;;;;16.49;38.22;101009.44;4903182;29;1014;-46
2024/01/27 09:23:07;;;;;;;;;;;;;;;17.38;36.18;101001.50;4896203;29;1954;-48
2024/01/27 09:25:33;;;;;;;;;;;;;;;16.02;39.27;100999.28;4897271;29;1115;-49
2024/01/27 09:28:00;;;;;;;;;;;;;;;15.49;40.08;101003.53;4882804;29;987;-44
2024/01/27 09:30:26;;;;;;;;;;;;;;;16.62;38.25;101017.41;4890888;29;1197;-48
2024/01/27 09:32:51;;;;;;;;;;;;;;;16.16;38.79;101012.47;4884753;29;988;-48
2024/01/27 09:35:17;;;;;;;;;;;;;;;16.51;38.55;101018.16;4885188;29;1022;-46
2024/01/27 09:37:43;;;;;;;;;;;;;;;17.92;35.34;101025.13;4903699;29;1126;-49
2024/01/27 09:40:08;;;;;;;;;;;;;;;16.03;38.76;101016.91;4903232;29;1011;-47
2024/01/27 09:42:38;;;;;;;;;;;;;;;15.48;40.20;101017.72;4909449;29;1907;-45
2024/01/27 09:45:04;;;;;;;;;;;;;;;15.32;40.55;101019.66;4897020;29;1005;-48
2024/01/27 09:47:29;;;;;;;;;;;;;;;16.60;38.09;101025.50;4903022;29;1023;-44
2024/01/27 09:49:55;;;;;;;;;;;;;;;15.55;39.71;101020.81;4902926;29;1148;-47
2024/01/27 09:52:20;;;;;;;;;;;;;;;15.73;39.98;101016.13;4896237;29;1034;-49
2024/01/27 09:54:46;;;;;;;;;;;;;;;16.86;37.39;101011.38;4892392;29;1169;-49
2024/01/27 09:57:12;;;;;;;;;;;;;;;15.65;39.56;101015.78;4908641;29;1127;-51
2024/01/27 09:59:38;;;;;;;;;;;;;;;17.57;36.43;101018.78;4902794;29;1038;-47
2024/01/27 10:02:04;;;;;;;;;;;;;;;16.50;37.99;101017.31;4907171;29;1978;-46
2024/01/27 10:04:29;;;;;;;;;;;;;;;15.71;39.79;101015.41;4899493;29;1134;-49
2024/01/27 10:06:55;;;;;;;;;;;;;;;15.42;40.39;101015.47;4893552;29;1018;-48
2024/01/27 10:09:21;;;;;;;;;;;;;;;16.98;37.57;101013.13;4911363;29;1218;-45
2024/01/27 10:11:47;;;;;;;;;;;;;;;16.06;38.87;101010.53;4894332;29;1111;-47
2024/01/27 10:14:13;;;;;;;;;;;;;;;15.37;40.39;101014.91;4889765;29;1070;-51
2024/01/27 10:16:42;;;;;;;;;;;;;;;16.79;37.72;101018.06;4891998;29;999;-49
2024/01/27 10:19:09;;;;;;;;;;;;;;;15.66;39.64;101004.25;4889199;29;1046;-45
2024/01/27 10:21:34;;;;;;;;;;;;;;;15.38;40.59;101003.38;4904712;29;1974;-47
2024/01/27 10:24:01;;;;;;;;;;;;;;;16.76;37.58;101006.69;4895924;29;1148;-49
2024/01/27 10:26:30;;;;;;;;;;;;;;;15.60;39.97;100994.88;4893813;29;991;-51
2024/01/27 10:28:55;;;;;;;;;;;;;;;16.80;37.75;101006.47;4902047;29;1074;-50
2024/01/27 10:31:25;;;;;;;;;;;;;;;16.01;39.14;101009.06;4900986;29;1077;-46
2024/01/27 10:33:52;;;;;;;;;;;;;;;15.46;40.56;101009.03;4902950;29;1062;-45
2024/01/27 10:36:17;;;;;;;;;;;;;;;17.11;36.86;101007.00;4902067;29;1099;-43
2024/01/27 10:38:43;;;;;;;;;;;;;;;15.65;39.92;100997.22;4886352;29;1881;-50
2024/01/27 10:41:12;;;;;;;;;;;;;;;17.21;36.93;100999.22;4895954;29;1107;-49
2024/01/27 10:43:38;;;;;;;;;;;;;;;16.55;38.03;100997.56;4895504;29;1911;-46
2024/01/27 10:46:05;;;;;;;;;;;;;;;15.72;39.58;100992.38;4895279;29;1083;-45
2024/01/27 10:48:32;;;;;;;;;;;;;;;17.08;37.29;101000.03;4901698;29;1245;-46
2024/01/27 10:50:57;;;;;;;;;;;;;;;15.87;39.21;101001.13;4903431;29;1063;-44
2024/01/27 10:53:30;;;;;;;;;;;;;;;15.38;40.44;101001.56;4916489;29;1050;-47
2024/01/27 10:55:57;;;;;;;;;;;;;;;16.73;37.67;100990.13;4901195;29;848;-49
2024/01/27 10:58:23;;;;;;;;;;;;;;;15.53;40.00;100994.41;4901149;29;1023;-43
2024/01/27 11:00:48;;;;;;;;;;;;;;;16.63;38.36;101000.53;4889086;29;1031;-48
2024/01/27 11:03:15;;;;;;;;;;;;;;;16.14;38.82;101005.56;4901780;29;1976;-45
2024/01/27 11:05:41;;;;;;;;;;;;;;;15.51;39.86;101000.78;4900146;29;1103;-41
2024/01/27 11:08:06;;;;;;;;;;;;;;;15.26;40.54;100989.09;4900747;29;896;-44
2024/01/27 11:10:35;;;;;;;;;;;;;;;16.84;37.57;100992.00;4899619;29;1098;-48
2024/01/27 11:13:04;;;;;;;;;;;;;;;15.51;40.05;100999.00;4901375;29;1050;-50
2024/01/27 11:15:29;;;;;;;;;;;;;;;17.54;36.45;100994.22;4901253;29;1272;-47
2024/01/27 11:17:59;;;;;;;;;;;;;;;16.73;37.37;100996.25;4900696;29;1126;-49
2024/01/27 11:20:25;;;;;;;;;;;;;;;15.75;39.64;100990.38;4882187;29;888;-49
2024/01/27 11:22:52;;;;;;;;;;;;;;;15.39;40.10;100986.50;4894496;29;1986;-51
2024/01/27 11:25:18;;;;;;;;;;;;;;;15.93;38.99;100986.59;4882229;29;1172;-48
2024/01/27 11:27:43;;;;;;;;;;;;;;;16.19;39.04;100989.34;4895567;29;1131;-48
2024/01/27 11:30:24;;;;;;;;;;;;;;;17.93;35.39;100986.91;4894189;29;1106;-49
2024/01/27 11:32:50;;;;;;;;;;;;;;;16.05;38.72;100983.16;4888261;29;999;-47
2024/01/27 11:35:17;;;;;;;;;;;;;;;15.46;40.22;100982.53;4882184;29;1064;-45
2024/01/27 11:37:42;;;;;;;;;;;;;;;16.71;37.92;101002.66;4886904;29;1106;-51
2024/01/27 11:40:09;;;;;;;;;;;;;;;15.68;39.55;101005.00;4890044;29;1066;-46
2024/01/27 11:42:34;;;;;;;;;;;;;;;16.41;38.55;101015.28;4882697;29;1907;-51
2024/01/27 11:45:00;;;;;;;;;;;;;;;16.25;38.15;101013.66;4890472;29;1022;-50
2024/01/27 11:47:25;;;;;;;;;;;;;;;15.47;40.12;101007.22;4886595;29;999;-43
2024/01/27 11:49:55;;;;;;;;;;;;;;;15.28;40.49;101017.19;4900235;29;1069;-43
2024/01/27 11:52:20;;;;;;;;;;;;;;;16.39;38.30;101011.88;4900528;29;1482;-49
2024/01/27 11:54:46;;;;;;;;;;;;;;;15.43;39.81;101010.06;4889940;29;1061;-47
2024/01/27 11:57:11;;;;;;;;;;;;;;;17.01;37.23;101022.72;4888718;29;1043;-45
2024/01/27 11:59:37;;;;;;;;;;;;;;;15.99;38.75;101018.06;4894351;29;1075;-49
2024/01/27 12:02:03;;;;;;;;;;;;;;;15.50;39.91;101015.81;4882049;29;1986;-48
2024/01/27 12:04:28;;;;;;;;;;;;;;;16.31;38.86;101014.22;4882101;29;1097;-44
2024/01/27 12:06:54;;;;;;;;;;;;;;;15.88;39.30;101008.13;4883578;29;851;-44
2024/01/27 12:09:20;;;;;;;;;;;;;;;16.03;39.32;101009.78;4896152;29;1050;-47
2024/01/27 12:11:45;;;;;;;;;;;;;;;17.42;36.21;101012.75;4891880;29;1105;-48
2024/01/27 12:14:11;;;;;;;;;;;;;;;15.96;39.09;101012.94;4900367;29;1090;-47
2024/01/27 12:16:36;;;;;;;;;;;;;;;15.34;40.35;101010.66;4899921;29;1054;-46
2024/01/27 12:19:02;;;;;;;;;;;;;;;16.39;38.13;101011.88;4895183;29;1064;-46
2024/01/27 12:21:28;;;;;;;;;;;;;;;15.52;40.13;101019.25;4891745;29;1070;-48
2024/01/27 12:23:54;;;;;;;;;;;;;;;16.43;38.43;101024.00;4895953;29;1967;-47
2024/01/27 12:26:20;;;;;;;;;;;;;;;15.87;39.03;101020.53;4893215;29;1119;-45
2024/01/27 12:28:47;;;;;;;;;;;;;;;15.25;40.24;101017.38;4888057;29;1226;-45
2024/01/27 12:31:12;;;;;;;;;;;;;;;16.00;39.42;101017.97;4896995;29;1520;-49
2024/01/27 12:33:37;;;;;;;;;;;;;;;15.55;39.93;101013.72;4899301;29;1147;-43
2024/01/27 12:36:06;;;;;;;;;;;;;;;15.42;40.63;101007.50;4898721;29;1091;-49
2024/01/27 12:38:32;;;;;;;;;;;;;;;16.84;37.48;101021.25;4909164;29;1004;-51
2024/01/27 12:40:58;;;;;;;;;;;;;;;15.54;39.76;101020.00;4893288;29;1030;-46